createdAt,value
2019-02-04T00:00:39.975Z,7.65
2019-02-04T00:03:14.339Z,7.62
2019-02-04T00:05:43.022Z,7.51
2019-02-04T00:08:11.746Z,7.45
2019-02-04T00:10:40.501Z,7.60
2019-02-04T00:13:09.176Z,7.51
2019-02-04T00:15:38.107Z,7.42
2019-02-04T00:18:07.271Z,7.44
2019-02-04T00:20:35.943Z,7.39
2019-02-04T00:23:04.772Z,7.45
2019-02-04T00:25:33.431Z,7.39
2019-02-04T00:28:02.138Z,7.32
2019-02-04T00:30:31.493Z,7.26
2019-02-04T00:33:00.161Z,7.22
2019-02-04T00:35:28.838Z,7.16
2019-02-04T00:37:57.493Z,7.10
2019-02-04T00:40:28.495Z,7.00
2019-02-04T00:42:57.366Z,6.91
2019-02-04T00:45:26.077Z,6.86
2019-02-04T00:47:54.741Z,6.83
2019-02-04T00:50:24.714Z,6.92
2019-02-04T00:52:53.591Z,6.93
2019-02-04T00:55:22.414Z,6.92
2019-02-04T00:57:51.159Z,6.88
2019-02-04T01:00:26.924Z,6.97
2019-02-04T01:02:56.294Z,7.05
2019-02-04T01:05:25.464Z,6.99
2019-02-04T01:07:54.276Z,7.07
2019-02-04T01:10:25.337Z,7.00
2019-02-04T01:12:54.206Z,6.97
2019-02-04T01:15:22.964Z,6.94
2019-02-04T01:17:51.644Z,6.98
2019-02-04T01:20:26.289Z,6.98
2019-02-04T01:22:55.390Z,6.97
2019-02-04T01:25:24.143Z,7.08
2019-02-04T01:27:52.807Z,7.09
2019-02-04T01:30:23.786Z,7.14
2019-02-04T01:32:52.454Z,7.21
2019-02-04T01:35:21.201Z,7.31
2019-02-04T01:37:50.021Z,7.32
2019-02-04T01:40:21.333Z,7.32
2019-02-04T01:42:50.210Z,7.35
2019-02-04T01:45:18.904Z,7.33
2019-02-04T01:47:47.561Z,7.39
2019-02-04T01:50:18.345Z,7.43
2019-02-04T01:52:46.995Z,7.37
2019-02-04T01:55:16.079Z,7.47
2019-02-04T01:57:47.001Z,7.78
2019-02-04T02:00:18.377Z,8.15
2019-02-04T02:02:47.242Z,8.27
2019-02-04T02:05:16.978Z,8.30
2019-02-04T02:07:45.679Z,8.25
2019-02-04T02:10:17.507Z,8.18
2019-02-04T02:12:46.464Z,8.12
2019-02-04T02:15:15.127Z,8.02
2019-02-04T02:17:43.793Z,7.92
2019-02-04T02:20:15.548Z,7.91
2019-02-04T02:22:44.316Z,7.95
2019-02-04T02:25:13.023Z,7.95
2019-02-04T02:27:41.702Z,7.87
2019-02-04T02:30:13.292Z,7.94
2019-02-04T02:32:42.124Z,7.93
2019-02-04T02:35:10.791Z,7.93
2019-02-04T02:37:39.455Z,8.00
2019-02-04T02:40:11.127Z,8.02
2019-02-04T02:42:39.786Z,8.03
2019-02-04T02:45:09.449Z,8.04
2019-02-04T02:47:38.862Z,8.04
2019-02-04T02:50:10.624Z,8.10
2019-02-04T02:52:39.680Z,8.15
2019-02-04T02:55:11.410Z,8.15
2019-02-04T02:57:40.081Z,8.10
2019-02-04T03:00:12.160Z,8.12
2019-02-04T03:02:40.819Z,8.05
2019-02-04T03:05:12.588Z,7.98
2019-02-04T03:07:41.254Z,7.83
2019-02-04T03:10:18.308Z,7.95
2019-02-04T03:12:47.455Z,7.86
2019-02-04T03:15:16.230Z,7.86
2019-02-04T03:17:52.113Z,7.89
2019-02-04T03:20:15.489Z,7.96
2019-02-04T03:22:44.142Z,7.89
2019-02-04T03:25:14.411Z,7.89
2019-02-04T03:27:43.657Z,7.86
2019-02-04T03:30:18.183Z,7.93
2019-02-04T03:32:46.920Z,7.81
2019-02-04T03:35:15.594Z,7.82
2019-02-04T03:37:44.290Z,7.76
2019-02-04T03:40:16.066Z,7.64
2019-02-04T03:42:44.740Z,7.78
2019-02-04T03:45:14.056Z,7.75
2019-02-04T03:47:44.486Z,7.79
2019-02-04T03:50:14.557Z,7.76
2019-02-04T03:52:43.221Z,7.70
2019-02-04T03:55:14.034Z,7.72
2019-02-04T03:57:42.800Z,7.71
2019-02-04T04:00:20.809Z,7.58
2019-02-04T04:02:50.311Z,7.65
2019-02-04T04:05:19.156Z,7.64
2019-02-04T04:07:47.862Z,7.69
2019-02-04T04:10:17.349Z,7.71
2019-02-04T04:12:46.320Z,7.77
2019-02-04T04:15:16.706Z,7.84
2019-02-04T04:17:45.546Z,7.90
2019-02-04T04:20:21.148Z,8.02
2019-02-04T04:22:50.035Z,8.05
2019-02-04T04:25:19.191Z,8.04
2019-02-04T04:27:48.076Z,7.99
2019-02-04T04:30:22.468Z,8.01
2019-02-04T04:32:51.110Z,8.08
2019-02-04T04:35:19.880Z,8.15
2019-02-04T04:37:48.676Z,8.19
2019-02-04T04:40:17.881Z,8.18
2019-02-04T04:42:46.661Z,8.13
2019-02-04T04:45:20.905Z,8.04
2019-02-04T04:47:50.359Z,7.88
2019-02-04T04:50:19.019Z,7.82
2019-02-04T04:52:47.882Z,7.77
2019-02-04T04:55:27.038Z,7.80
2019-02-04T04:57:56.710Z,7.84
2019-02-04T05:00:31.089Z,7.89
2019-02-04T05:03:00.188Z,7.81
2019-02-04T05:05:28.844Z,7.80
2019-02-04T05:07:57.539Z,7.82
2019-02-04T05:10:26.207Z,7.88
2019-02-04T05:12:54.920Z,7.85
2019-02-04T05:15:25.811Z,7.83
2019-02-04T05:17:54.482Z,7.67
2019-02-04T05:20:23.447Z,7.70
2019-02-04T05:22:52.215Z,7.63
2019-02-04T05:25:21.499Z,7.58
2019-02-04T05:27:50.175Z,7.55
2019-02-04T05:30:24.289Z,7.43
2019-02-04T05:32:52.988Z,7.23
2019-02-04T05:35:21.813Z,7.27
2019-02-04T05:37:50.879Z,7.07
2019-02-04T05:40:20.059Z,7.15
2019-02-04T05:42:49.041Z,7.20
2019-02-04T05:45:19.645Z,7.17
2019-02-04T05:47:48.814Z,7.14
2019-02-04T05:50:19.220Z,7.03
2019-02-04T05:52:48.823Z,7.10
2019-02-04T05:55:19.286Z,6.93
2019-02-04T05:57:48.133Z,7.18
2019-02-04T06:00:26.872Z,7.29
2019-02-04T06:02:55.536Z,7.35
2019-02-04T06:05:24.408Z,7.49
2019-02-04T06:07:53.169Z,7.43
2019-02-04T06:10:21.878Z,7.47
2019-02-04T06:12:50.544Z,7.49
2019-02-04T06:15:19.299Z,7.49
2019-02-04T06:17:48.385Z,7.60
2019-02-04T06:20:24.875Z,7.54
2019-02-04T06:22:53.928Z,7.65
2019-02-04T06:25:22.604Z,7.61
2019-02-04T06:27:51.275Z,7.61
2019-02-04T06:30:19.962Z,7.71
2019-02-04T06:32:48.638Z,7.72
2019-02-04T06:35:18.227Z,7.78
2019-02-04T06:37:47.722Z,7.75
2019-02-04T06:40:18.431Z,7.64
2019-02-04T06:42:49.909Z,7.66
2019-02-04T06:45:19.088Z,7.77
2019-02-04T06:47:55.138Z,7.78
2019-02-04T06:50:46.193Z,7.79
2019-02-04T06:53:14.976Z,7.86
2019-02-04T06:55:43.760Z,7.98
2019-02-04T06:58:12.413Z,8.04
2019-02-04T07:00:41.459Z,8.10
2019-02-04T07:03:10.253Z,8.26
2019-02-04T07:05:43.924Z,8.34
2019-02-04T07:08:09.481Z,8.48
2019-02-04T07:10:38.146Z,8.54
2019-02-04T07:13:07.022Z,8.59
2019-02-04T07:15:35.972Z,8.66
2019-02-04T07:18:04.781Z,8.73
2019-02-04T07:20:33.463Z,8.69
2019-02-04T07:23:02.148Z,8.83
2019-02-04T07:25:32.391Z,8.87
2019-02-04T07:28:01.389Z,8.90
2019-02-04T07:30:30.297Z,8.98
2019-02-04T07:32:59.126Z,9.21
2019-02-04T07:35:28.115Z,9.21
2019-02-04T07:37:56.808Z,9.30
2019-02-04T07:40:28.324Z,9.47
2019-02-04T07:42:57.005Z,9.65
2019-02-04T07:45:25.932Z,9.96
2019-02-04T07:47:54.838Z,10.11
2019-02-04T07:50:24.122Z,10.30
2019-02-04T07:52:54.587Z,10.73
2019-02-04T07:55:23.275Z,11.02
2019-02-04T07:57:52.009Z,11.10
2019-02-04T08:00:23.273Z,11.07
2019-02-04T08:02:52.349Z,11.13
2019-02-04T08:05:21.145Z,11.06
2019-02-04T08:07:50.172Z,11.03
2019-02-04T08:10:19.072Z,11.05
2019-02-04T08:12:48.017Z,10.92
2019-02-04T08:15:19.516Z,10.90
2019-02-04T08:17:48.494Z,10.89
2019-02-04T08:20:17.275Z,10.89
2019-02-04T08:22:46.412Z,10.97
2019-02-04T08:25:17.092Z,11.03
2019-02-04T08:27:46.712Z,11.10
2019-02-04T08:30:33.668Z,11.01
2019-02-04T08:33:02.830Z,10.93
2019-02-04T08:35:32.169Z,11.05
2019-02-04T08:38:01.053Z,11.23
2019-02-04T08:40:30.507Z,11.50
2019-02-04T08:43:00.334Z,11.66
2019-02-04T08:45:29.285Z,11.90
2019-02-04T08:47:58.015Z,12.03
2019-02-04T08:50:28.657Z,11.94
2019-02-04T08:52:57.375Z,11.70
2019-02-04T08:55:26.173Z,11.97
2019-02-04T08:57:55.814Z,12.07
2019-02-04T09:00:25.976Z,12.18
2019-02-04T09:02:54.702Z,12.28
2019-02-04T09:05:24.691Z,12.58
2019-02-04T09:07:53.377Z,12.57
2019-02-04T09:10:27.575Z,12.91
2019-02-04T09:12:56.308Z,13.00
2019-02-04T09:15:25.080Z,12.92
2019-02-04T09:17:54.067Z,13.05
2019-02-04T09:20:23.317Z,13.11
2019-02-04T09:22:52.445Z,13.17
2019-02-04T09:25:24.149Z,13.13
2019-02-04T09:27:53.314Z,13.55
2019-02-04T09:30:24.162Z,13.66
2019-02-04T09:32:53.430Z,13.61
2019-02-04T09:35:23.349Z,13.85
2019-02-04T09:37:52.719Z,14.17
2019-02-04T09:40:30.659Z,14.22
2019-02-04T09:42:59.343Z,14.25
2019-02-04T09:45:28.251Z,14.18
2019-02-04T09:47:58.145Z,14.35
2019-02-04T09:50:32.762Z,14.43
2019-02-04T09:53:01.525Z,14.76
2019-02-04T09:55:33.357Z,14.86
2019-02-04T09:58:02.194Z,14.97
2019-02-04T10:00:33.841Z,14.91
2019-02-04T10:03:02.498Z,15.11
2019-02-04T10:05:31.351Z,15.42
2019-02-04T10:08:00.637Z,15.58
2019-02-04T10:10:33.910Z,15.52
2019-02-04T10:13:02.702Z,15.60
2019-02-04T10:15:34.475Z,15.61
2019-02-04T10:18:03.219Z,15.44
2019-02-04T10:20:34.650Z,14.95
2019-02-04T10:23:04.461Z,15.07
2019-02-04T10:25:36.182Z,15.09
2019-02-04T10:28:06.076Z,15.08
2019-02-04T10:30:34.767Z,14.99
2019-02-04T10:33:03.757Z,14.86
2019-02-04T10:35:33.033Z,14.82
2019-02-04T10:38:02.450Z,14.62
2019-02-04T10:40:31.778Z,14.32
2019-02-04T10:43:01.580Z,14.38
2019-02-04T10:45:30.673Z,14.73
2019-02-04T10:47:59.313Z,14.74
2019-02-04T10:50:31.213Z,15.19
2019-02-04T10:53:00.242Z,15.44
2019-02-04T10:55:29.055Z,15.47
2019-02-04T10:57:57.879Z,15.69
2019-02-04T11:00:29.561Z,15.90
2019-02-04T11:02:59.973Z,16.14
2019-02-04T11:05:31.262Z,16.10
2019-02-04T11:08:04.967Z,16.27
2019-02-04T11:10:35.328Z,16.38
2019-02-04T11:13:07.297Z,16.41
2019-02-04T11:15:36.594Z,16.46
2019-02-04T11:18:06.005Z,16.41
2019-02-04T11:20:36.536Z,16.37
2019-02-04T11:23:07.804Z,16.26
2019-02-04T11:25:36.981Z,16.30
2019-02-04T11:28:10.927Z,16.46
2019-02-04T11:30:45.564Z,16.55
2019-02-04T11:33:14.599Z,16.79
2019-02-04T11:35:43.252Z,16.64
2019-02-04T11:38:12.263Z,16.72
2019-02-04T11:40:42.282Z,16.88
2019-02-04T11:43:13.339Z,17.30
2019-02-04T11:45:42.235Z,17.36
2019-02-04T11:48:13.576Z,17.16
2019-02-04T11:50:42.406Z,17.79
2019-02-04T11:53:11.435Z,18.57
2019-02-04T11:55:40.281Z,19.21
2019-02-04T11:58:11.079Z,19.97
2019-02-04T12:00:40.292Z,20.38
2019-02-04T12:03:12.278Z,20.42
2019-02-04T12:05:41.310Z,20.57
2019-02-04T12:08:11.856Z,20.83
2019-02-04T12:10:52.444Z,20.83
2019-02-04T12:13:24.261Z,21.34
2019-02-04T12:15:53.968Z,21.78
2019-02-04T12:18:22.806Z,21.43
2019-02-04T12:20:52.276Z,21.86
2019-02-04T12:23:21.427Z,23.31
2019-02-04T12:25:50.223Z,23.82
2019-02-04T12:28:19.272Z,23.48
2019-02-04T12:30:48.257Z,23.08
2019-02-04T12:33:17.485Z,22.52
2019-02-04T12:35:46.479Z,22.44
2019-02-04T12:38:18.272Z,21.96
2019-02-04T12:40:47.170Z,22.66
2019-02-04T12:43:15.954Z,24.17
2019-02-04T12:45:45.670Z,26.00
2019-02-04T12:48:14.499Z,27.45
2019-02-04T12:50:43.227Z,29.07
2019-02-04T12:53:12.594Z,29.35
2019-02-04T12:55:41.482Z,28.93
2019-02-04T12:58:10.382Z,27.94
2019-02-04T13:00:39.281Z,27.28
2019-02-04T13:03:08.001Z,26.63
2019-02-04T13:05:42.212Z,27.54
2019-02-04T13:08:12.449Z,26.63
2019-02-04T13:10:41.505Z,25.33
2019-02-04T13:13:12.918Z,22.47
2019-02-04T13:15:42.092Z,22.75
2019-02-04T13:18:13.758Z,23.18
2019-02-04T13:20:43.323Z,23.09
2019-02-04T13:23:12.219Z,23.73
2019-02-04T13:25:41.033Z,24.09
2019-02-04T13:28:12.686Z,24.02
2019-02-04T13:30:44.305Z,22.99
2019-02-04T13:33:13.172Z,23.16
2019-02-04T13:35:42.104Z,23.04
2019-02-04T13:38:11.300Z,23.29
2019-02-04T13:40:44.356Z,22.76
2019-02-04T13:43:12.428Z,22.54
2019-02-04T13:45:41.333Z,22.21
2019-02-04T13:48:10.915Z,21.24
2019-02-04T13:50:40.548Z,19.90
2019-02-04T13:53:11.053Z,19.07
2019-02-04T13:55:44.277Z,18.32
2019-02-04T13:58:13.222Z,17.78
2019-02-04T14:00:49.186Z,17.39
2019-02-04T14:03:18.231Z,17.42
2019-02-04T14:05:47.335Z,17.19
2019-02-04T14:08:16.117Z,17.40
2019-02-04T14:10:46.244Z,19.18
2019-02-04T14:13:15.319Z,21.52
2019-02-04T14:15:44.533Z,23.23
2019-02-04T14:18:13.581Z,23.16
2019-02-04T14:20:42.365Z,21.85
2019-02-04T14:23:11.368Z,21.19
2019-02-04T14:25:40.576Z,20.22
2019-02-04T14:28:09.257Z,19.19
2019-02-04T14:30:39.572Z,18.65
2019-02-04T14:33:09.887Z,18.27
2019-02-04T14:35:38.651Z,17.82
2019-02-04T14:38:07.859Z,17.21
2019-02-04T14:40:36.994Z,16.65
2019-02-04T14:43:09.275Z,16.47
2019-02-04T14:45:56.314Z,16.74
2019-02-04T14:48:43.061Z,17.03
2019-02-04T14:51:17.897Z,16.81
2019-02-04T14:54:12.393Z,16.22
2019-02-04T14:56:52.855Z,15.73
2019-02-04T14:59:24.994Z,15.34
2019-02-04T15:02:02.561Z,15.18
2019-02-04T15:04:39.891Z,14.95
2019-02-04T15:07:23.498Z,14.84
2019-02-04T15:10:04.454Z,14.79
2019-02-04T15:12:45.289Z,14.79
2019-02-04T15:15:32.155Z,14.71
2019-02-04T15:18:06.971Z,14.59
2019-02-04T15:21:04.157Z,14.36
2019-02-04T15:23:41.358Z,14.20
2019-02-04T15:26:24.918Z,13.99
2019-02-04T15:29:05.684Z,13.83
2019-02-04T15:31:46.803Z,13.75
2019-02-04T15:34:27.260Z,13.55
2019-02-04T15:37:01.643Z,13.34
2019-02-04T15:39:55.995Z,13.21
2019-02-04T15:42:32.369Z,13.06
2019-02-04T15:45:10.169Z,12.81
2019-02-04T15:47:41.914Z,12.74
2019-02-04T15:50:24.867Z,12.57
2019-02-04T15:52:53.539Z,12.41
2019-02-04T15:55:22.234Z,12.36
2019-02-04T15:57:51.046Z,12.28
2019-02-04T16:00:19.809Z,12.23
2019-02-04T16:02:48.524Z,12.17
2019-02-04T16:05:17.260Z,12.14
2019-02-04T16:07:46.775Z,12.10
2019-02-04T16:10:17.233Z,12.08
2019-02-04T16:12:47.842Z,12.04
2019-02-04T16:15:17.098Z,12.01
2019-02-04T16:17:45.990Z,11.92
2019-02-04T16:20:20.950Z,11.88
2019-02-04T16:22:57.901Z,11.83
2019-02-04T16:25:20.528Z,11.82
2019-02-04T16:27:49.246Z,11.70
2019-02-04T16:30:22.428Z,11.66
2019-02-04T16:32:52.974Z,11.43
2019-02-04T16:35:21.512Z,11.56
2019-02-04T16:37:50.988Z,11.54
2019-02-04T16:40:21.863Z,11.58
2019-02-04T16:42:50.634Z,11.50
2019-02-04T16:45:22.591Z,11.44
2019-02-04T16:47:51.958Z,11.42
2019-02-04T16:50:25.887Z,11.38
2019-02-04T16:52:54.609Z,11.34
2019-02-04T16:55:23.448Z,11.28
2019-02-04T16:57:54.397Z,11.26
2019-02-04T17:00:28.235Z,11.24
2019-02-04T17:02:56.932Z,11.20
2019-02-04T17:05:27.453Z,11.20
2019-02-04T17:07:56.468Z,11.13
2019-02-04T17:10:27.031Z,11.08
2019-02-04T17:12:56.299Z,11.07
2019-02-04T17:15:26.135Z,11.10
2019-02-04T17:17:54.943Z,11.07
2019-02-04T17:20:29.040Z,11.02
2019-02-04T17:22:57.727Z,10.97
2019-02-04T17:25:26.412Z,10.94
2019-02-04T17:27:55.765Z,10.91
2019-02-04T17:30:25.783Z,10.84
2019-02-04T17:32:54.756Z,10.78
2019-02-04T17:35:23.789Z,10.76
2019-02-04T17:37:52.660Z,10.73
2019-02-04T17:40:23.588Z,10.71
2019-02-04T17:42:54.163Z,10.68
2019-02-04T17:45:22.869Z,10.28
2019-02-04T17:47:53.074Z,10.61
2019-02-04T17:50:23.305Z,10.62
2019-02-04T17:52:52.220Z,10.60
2019-02-04T17:55:28.639Z,10.52
2019-02-04T17:57:57.372Z,10.37
2019-02-04T18:00:34.561Z,10.40
2019-02-04T18:03:03.231Z,10.33
2019-02-04T18:05:32.011Z,10.27
2019-02-04T18:08:02.109Z,10.20
2019-02-04T18:10:31.383Z,10.14
2019-02-04T18:13:00.031Z,10.03
2019-02-04T18:15:28.939Z,10.01
2019-02-04T18:17:57.569Z,10.01
2019-02-04T18:20:26.254Z,9.96
2019-02-04T18:22:54.941Z,9.99
2019-02-04T18:25:23.793Z,9.96
2019-02-04T18:27:52.525Z,9.94
2019-02-04T18:30:25.946Z,9.94
2019-02-04T18:32:55.115Z,9.93
2019-02-04T18:35:24.230Z,9.90
2019-02-04T18:37:53.171Z,9.83
2019-02-04T18:40:23.470Z,9.83
2019-02-04T18:42:53.172Z,9.83
2019-02-04T18:45:24.819Z,9.78
2019-02-04T18:47:53.614Z,9.76
2019-02-04T18:50:24.605Z,9.73
2019-02-04T18:52:53.930Z,9.78
2019-02-04T18:55:25.502Z,9.81
2019-02-04T18:57:54.633Z,9.80
2019-02-04T19:00:26.030Z,9.81
2019-02-04T19:02:55.301Z,9.76
2019-02-04T19:05:26.720Z,9.72
2019-02-04T19:07:54.975Z,9.71
2019-02-04T19:10:24.564Z,9.72
2019-02-04T19:12:53.339Z,9.70
2019-02-04T19:15:27.914Z,9.62
2019-02-04T19:18:02.644Z,9.61
2019-02-04T19:20:31.432Z,9.54
2019-02-04T19:23:00.120Z,9.46
2019-02-04T19:25:28.790Z,9.16
2019-02-04T19:27:57.659Z,9.39
2019-02-04T19:30:38.092Z,9.38
2019-02-04T19:33:07.420Z,9.30
2019-02-04T19:35:36.092Z,9.38
2019-02-04T19:38:05.086Z,9.28
2019-02-04T19:40:33.783Z,9.24
2019-02-04T19:43:02.680Z,9.32
2019-02-04T19:45:31.940Z,9.40
2019-02-04T19:48:03.076Z,9.42
2019-02-04T19:50:33.217Z,9.38
2019-02-04T19:53:02.337Z,9.33
2019-02-04T19:55:30.991Z,9.34
2019-02-04T19:58:00.369Z,9.25
2019-02-04T20:00:29.633Z,9.27
2019-02-04T20:02:58.494Z,9.23
2019-02-04T20:05:29.207Z,9.20
2019-02-04T20:07:58.186Z,9.20
2019-02-04T20:10:32.973Z,9.12
2019-02-04T20:13:02.624Z,9.00
2019-02-04T20:15:34.315Z,8.94
2019-02-04T20:18:03.173Z,8.95
2019-02-04T20:20:31.935Z,8.87
2019-02-04T20:23:00.618Z,8.88
2019-02-04T20:25:36.503Z,8.83
2019-02-04T20:28:07.702Z,8.66
2019-02-04T20:30:46.105Z,8.69
2019-02-04T20:33:14.806Z,8.54
2019-02-04T20:35:43.472Z,8.53
2019-02-04T20:38:12.222Z,8.50
2019-02-04T20:40:42.504Z,8.55
2019-02-04T20:43:11.169Z,8.51
2019-02-04T20:45:39.907Z,8.44
2019-02-04T20:48:11.287Z,8.45
2019-02-04T20:50:42.639Z,8.38
2019-02-04T20:53:11.719Z,8.33
2019-02-04T20:55:40.874Z,8.24
2019-02-04T20:58:09.833Z,8.16
2019-02-04T21:00:38.630Z,8.12
2019-02-04T21:03:07.790Z,8.04
2019-02-04T21:05:36.567Z,7.97
2019-02-04T21:08:06.377Z,7.97
2019-02-04T21:10:35.773Z,7.96
2019-02-04T21:13:05.236Z,7.92
2019-02-04T21:15:33.901Z,7.88
2019-02-04T21:18:02.619Z,7.96
2019-02-04T21:20:31.789Z,8.00
2019-02-04T21:23:00.470Z,8.05
2019-02-04T21:25:29.322Z,8.08
2019-02-04T21:27:57.986Z,8.12
2019-02-04T21:30:32.056Z,8.19
2019-02-04T21:33:01.630Z,8.17
2019-02-04T21:35:30.712Z,8.23
2019-02-04T21:37:59.391Z,8.25
2019-02-04T21:40:28.600Z,8.13
2019-02-04T21:42:57.258Z,8.18
2019-02-04T21:45:27.135Z,8.23
2019-02-04T21:47:55.804Z,8.19
2019-02-04T21:50:27.131Z,8.18
2019-02-04T21:52:56.206Z,8.19
2019-02-04T21:55:25.573Z,8.18
2019-02-04T21:57:54.563Z,8.15
2019-02-04T22:00:34.757Z,8.17
2019-02-04T22:03:05.014Z,8.29
2019-02-04T22:05:35.452Z,8.35
2019-02-04T22:08:05.771Z,8.23
2019-02-04T22:10:34.947Z,8.20
2019-02-04T22:13:03.703Z,8.22
2019-02-04T22:15:32.843Z,8.28
2019-02-04T22:18:01.598Z,8.26
2019-02-04T22:20:30.251Z,8.21
2019-02-04T22:22:58.923Z,8.23
2019-02-04T22:25:27.820Z,8.18
2019-02-04T22:27:56.492Z,8.24
2019-02-04T22:30:30.329Z,8.20
2019-02-04T22:32:59.281Z,8.25
2019-02-04T22:35:28.289Z,8.27
2019-02-04T22:37:57.511Z,8.22
2019-02-04T22:40:29.901Z,8.11
2019-02-04T22:42:58.897Z,8.06
2019-02-04T22:45:27.915Z,8.05
2019-02-04T22:47:56.856Z,8.03
2019-02-04T22:50:28.214Z,8.02
2019-02-04T22:52:57.205Z,8.06
2019-02-04T22:55:31.990Z,8.03
2019-02-04T22:57:56.374Z,7.96
2019-02-04T23:00:51.853Z,7.90
2019-02-04T23:03:23.575Z,8.02
2019-02-04T23:05:52.496Z,7.92
2019-02-04T23:08:21.318Z,7.91
2019-02-04T23:10:50.166Z,7.90
2019-02-04T23:13:18.920Z,7.90
2019-02-04T23:15:47.739Z,7.92
2019-02-04T23:18:16.465Z,7.95
2019-02-04T23:20:45.142Z,7.94
2019-02-04T23:23:13.811Z,7.92
2019-02-04T23:25:43.705Z,7.88
2019-02-04T23:28:12.575Z,7.88
2019-02-04T23:30:41.252Z,7.77
2019-02-04T23:33:10.026Z,7.71
2019-02-04T23:35:38.692Z,7.77
2019-02-04T23:38:07.884Z,7.71
2019-02-04T23:40:36.563Z,7.66
2019-02-04T23:43:05.976Z,7.58
2019-02-04T23:45:34.985Z,7.48
2019-02-04T23:48:04.153Z,7.35
2019-02-04T23:50:32.822Z,7.20
2019-02-04T23:53:01.573Z,7.08
2019-02-04T23:55:30.359Z,6.95
2019-02-04T23:57:59.107Z,6.94
